KDAY/DAY METAR and TAF weather

Enter ICAO airport designator
Station Type Date Time Source
KDAY METAR 2020/07/15 07:56 UTC NOAA

KDAY 150756Z 13005KT 10SM SCT250 20/15 A3009 RMK AO2 SLP182 T02000150


Station Type Date Time Source
KDAY Decoded METAR 2020/07/15 07:56 UTC NOAA

COX DAYTON INTERNATIONAL, OH, United States (KDAY) 39-54N 084-13W 305M
Jul 15, 2020 - 03:56 AM EDT / 2020.07.15 0756 UTC
Wind: from the SE (130 degrees) at 6 MPH (5 KT):0
Visibility: 10 mile(s):0
Sky conditions: partly cloudy
Temperature: 68.0 F (20.0 C)
Dew Point: 59.0 F (15.0 C)
Relative Humidity: 72%
Pressure (altimeter): 30.09 in. Hg (1018 hPa)
ob: KDAY 150756Z 13005KT 10SM SCT250 20/15 A3009 RMK AO2 SLP182 T02000150
cycle: 8

Station Type Date Time Source
KDAY TAF 2020/07/15 06:40 UTC NOAA

TAF KDAY 150538Z 1506/1606 10004KT P6SM SCT250
FM151400 18008KT P6SM SCT250

Example: see airport list